Station Historical Data
Daily Summary for January 13, 2018 Units:  Both    English   Metric
« Previous Day
Next Day »
Daily Weekly Monthly Yearly Custom
  High: Low: Average:
Temperature: 57.4 °F /  14.1 °C 21.7 °F /  -5.7 °C 35.6 °F /  2 °C
Dew Point: 57.1 °F /  13.9 °C 9.6 °F /  -12.4 °C 28.1 °F /  -2.2 °C
Humidity: 99 % 56 % 75 %
Wind Speed: 12.0 mph /  19.3 km/h - 3.7 mph /  6 km/h
Wind Gust: 27.0 mph /  43.5 km/h - -
Wind:- - SSW
Pressure: 30.53 in /  1033.7 hPa 29.38 in /  994.8 hPa -
Precipitation: 0.06 in /  1.52 mm    
Historical Graphs
 
 
Tabular Data for January 13, 2018
Time Temperature Dew Point Pressure Wind Wind Speed Wind Gust Humidity Rainfall Rate (Hourly)
00:05 55.9 °F /  13.3 °C 55.6 °F /  13.1 °C 29.47 in /  997.9 hPa East 1.0 mph /  1.6 km/h 7.0 mph /  11.3 km/h 99 % 0.03 in /  0.76 mm
00:12 55.5 °F /  13.1 °C 55.2 °F /  12.9 °C 29.46 in /  997.5 hPa Calm   7.0 mph /  11.3 km/h 99 % 0.03 in /  0.76 mm
00:21 54.6 °F /  12.6 °C 54.0 °F /  12.2 °C 29.46 in /  997.5 hPa Calm   6.0 mph /  9.7 km/h 98 % 0.03 in /  0.76 mm
00:28 54.1 °F /  12.3 °C 53.5 °F /  11.9 °C 29.44 in /  996.8 hPa ESE 2.0 mph /  3.2 km/h 7.0 mph /  11.3 km/h 98 % 0.02 in /  0.51 mm
00:42 54.0 °F /  12.2 °C 53.7 °F /  12.1 °C 29.42 in /  996.2 hPa ESE 1.0 mph /  1.6 km/h 7.0 mph /  11.3 km/h 99 % 0.04 in /  1.02 mm
00:55 54.3 °F /  12.4 °C 54.0 °F /  12.2 °C 29.40 in /  995.5 hPa ESE 2.0 mph /  3.2 km/h 8.0 mph /  12.9 km/h 99 % 0.03 in /  0.76 mm
01:12 54.8 °F /  12.7 °C 54.5 °F /  12.5 °C 29.38 in /  994.8 hPa East 1.0 mph /  1.6 km/h 8.0 mph /  12.9 km/h 99 % 0.02 in /  0.51 mm
01:57 57.4 °F /  14.1 °C 57.1 °F /  13.9 °C 29.43 in /  996.5 hPa South 11.0 mph /  17.7 km/h 27.0 mph /  43.5 km/h 99 % 0.02 in /  0.51 mm
02:19 51.0 °F /  10.6 °C 50.4 °F /  10.2 °C 29.40 in /  995.5 hPa WSW 5.0 mph /  8 km/h 26.0 mph /  41.8 km/h 98 % 0.02 in /  0.51 mm
02:33 50.2 °F /  10.1 °C 49.6 °F /  9.8 °C 29.42 in /  996.2 hPa WSW 9.0 mph /  14.5 km/h 16.0 mph /  25.7 km/h 98 % 0.02 in /  0.51 mm
02:44 49.8 °F /  9.9 °C 49.2 °F /  9.6 °C 29.42 in /  996.2 hPa West 3.0 mph /  4.8 km/h 16.0 mph /  25.7 km/h 98 % 0.01 in /  0.25 mm
02:54 49.6 °F /  9.8 °C 48.8 °F /  9.3 °C 29.45 in /  997.2 hPa WSW 1.0 mph /  1.6 km/h 13.0 mph /  20.9 km/h 97 % 0.00 in /  0 mm
03:12 49.3 °F /  9.6 °C 48.5 °F /  9.2 °C 29.48 in /  998.2 hPa SW 3.0 mph /  4.8 km/h 12.0 mph /  19.3 km/h 97 % 0.00 in /  0 mm
03:22 49.1 °F /  9.5 °C 48.3 °F /  9.1 °C 29.49 in /  998.5 hPa WSW 4.0 mph /  6.4 km/h 12.0 mph /  19.3 km/h 97 % 0.00 in /  0 mm
03:32 48.9 °F /  9.4 °C 48.1 °F /  8.9 °C 29.51 in /  999.2 hPa Calm   6.0 mph /  9.7 km/h 97 % 0.00 in /  0 mm
03:41 48.8 °F /  9.3 °C 48.0 °F /  8.9 °C 29.52 in /  999.5 hPa Calm   7.0 mph /  11.3 km/h 97 % 0.00 in /  0 mm
04:00 47.9 °F /  8.8 °C 46.8 °F /  8.2 °C 29.54 in /  1000.2 hPa WSW 4.0 mph /  6.4 km/h 8.0 mph /  12.9 km/h 96 % 0.00 in /  0 mm
04:28 46.8 °F /  8.2 °C 45.4 °F /  7.4 °C 29.57 in /  1001.2 hPa Calm   13.0 mph /  20.9 km/h 95 % 0.00 in /  0 mm
04:36 46.7 °F /  8.2 °C 45.3 °F /  7.4 °C 29.58 in /  1001.6 hPa WSW 1.0 mph /  1.6 km/h 10.0 mph /  16.1 km/h 95 % 0.00 in /  0 mm
04:44 46.4 °F /  8 °C 45.0 °F /  7.2 °C 29.59 in /  1001.9 hPa WSW 1.0 mph /  1.6 km/h 16.0 mph /  25.7 km/h 95 % 0.00 in /  0 mm
04:49 46.1 °F /  7.8 °C 44.7 °F /  7.1 °C 29.59 in /  1001.9 hPa West 3.0 mph /  4.8 km/h 17.0 mph /  27.4 km/h 95 % 0.00 in /  0 mm
04:56 45.9 °F /  7.7 °C 44.2 °F /  6.8 °C 29.60 in /  1002.3 hPa SW 11.0 mph /  17.7 km/h 17.0 mph /  27.4 km/h 94 % 0.00 in /  0 mm
05:18 45.2 °F /  7.3 °C 43.5 °F /  6.4 °C 29.63 in /  1003.3 hPa WSW 5.0 mph /  8 km/h 13.0 mph /  20.9 km/h 94 % 0.01 in /  0.25 mm
05:23 45.0 °F /  7.2 °C 43.3 °F /  6.3 °C 29.64 in /  1003.6 hPa WSW 9.0 mph /  14.5 km/h 13.0 mph /  20.9 km/h 94 % 0.01 in /  0.25 mm
05:35 44.3 °F /  6.8 °C 42.6 °F /  5.9 °C 29.66 in /  1004.3 hPa Calm   13.0 mph /  20.9 km/h 94 % 0.01 in /  0.25 mm
06:02 42.7 °F /  5.9 °C 40.5 °F /  4.7 °C 29.70 in /  1005.6 hPa NW 8.0 mph /  12.9 km/h 16.0 mph /  25.7 km/h 92 % 0.01 in /  0.25 mm
06:11 42.4 °F /  5.8 °C 40.2 °F /  4.6 °C 29.72 in /  1006.3 hPa WNW 5.0 mph /  8 km/h 16.0 mph /  25.7 km/h 92 % 0.01 in /  0.25 mm
06:39 41.1 °F /  5.1 °C 38.1 °F /  3.4 °C 29.77 in /  1008 hPa WSW 8.0 mph /  12.9 km/h 15.0 mph /  24.1 km/h 89 % 0.00 in /  0 mm
06:46 40.2 °F /  4.6 °C 36.9 °F /  2.7 °C 29.78 in /  1008.4 hPa ENE 3.0 mph /  4.8 km/h 22.0 mph /  35.4 km/h 88 % 0.00 in /  0 mm
07:28 36.8 °F /  2.7 °C 33.0 °F /  0.6 °C 29.84 in /  1010.4 hPa North 4.0 mph /  6.4 km/h 15.0 mph /  24.1 km/h 86 % 0.00 in /  0 mm
07:52 36.1 °F /  2.3 °C 32.3 °F /  0.2 °C 29.88 in /  1011.7 hPa WSW 1.0 mph /  1.6 km/h 12.0 mph /  19.3 km/h 86 % 0.00 in /  0 mm
07:57 35.9 °F /  2.2 °C 32.1 °F /  0.1 °C 29.87 in /  1011.4 hPa West 4.0 mph /  6.4 km/h 12.0 mph /  19.3 km/h 86 % 0.00 in /  0 mm
08:07 35.7 °F /  2.1 °C 31.9 °F /  -0.1 °C 29.89 in /  1012.1 hPa North 6.0 mph /  9.7 km/h 12.0 mph /  19.3 km/h 86 % 0.00 in /  0 mm
08:14 35.3 °F /  1.8 °C 30.9 °F /  -0.6 °C 29.90 in /  1012.4 hPa West 10.0 mph /  16.1 km/h 16.0 mph /  25.7 km/h 84 % 0.00 in /  0 mm
08:28 34.7 °F /  1.5 °C 30.1 °F /  -1.1 °C 29.92 in /  1013.1 hPa North 7.0 mph /  11.3 km/h 16.0 mph /  25.7 km/h 83 % 0.00 in /  0 mm
08:35 34.4 °F /  1.3 °C 30.0 °F /  -1.1 °C 29.92 in /  1013.1 hPa North 5.0 mph /  8 km/h 11.0 mph /  17.7 km/h 84 % 0.00 in /  0 mm
08:53 33.8 °F /  1 °C 29.5 °F /  -1.4 °C 29.94 in /  1013.8 hPa North 6.0 mph /  9.7 km/h 15.0 mph /  24.1 km/h 84 % 0.00 in /  0 mm
08:59 33.7 °F /  0.9 °C 29.4 °F /  -1.4 °C 29.95 in /  1014.1 hPa WNW 5.0 mph /  8 km/h 15.0 mph /  24.1 km/h 84 % 0.00 in /  0 mm
09:09 33.5 °F /  0.8 °C 28.9 °F /  -1.7 °C 29.97 in /  1014.8 hPa North 10.0 mph /  16.1 km/h 15.0 mph /  24.1 km/h 83 % 0.00 in /  0 mm
09:15 33.4 °F /  0.8 °C 28.8 °F /  -1.8 °C 29.98 in /  1015.1 hPa WSW 5.0 mph /  8 km/h 15.0 mph /  24.1 km/h 83 % 0.00 in /  0 mm
09:27 33.3 °F /  0.7 °C 29.0 °F /  -1.7 °C 29.99 in /  1015.5 hPa WSW 2.0 mph /  3.2 km/h 12.0 mph /  19.3 km/h 84 % 0.00 in /  0 mm
09:44 33.0 °F /  0.6 °C 28.7 °F /  -1.8 °C 30.00 in /  1015.8 hPa WNW 2.0 mph /  3.2 km/h 11.0 mph /  17.7 km/h 84 % 0.00 in /  0 mm
09:57 33.3 °F /  0.7 °C 29.0 °F /  -1.7 °C 30.01 in /  1016.1 hPa Calm   11.0 mph /  17.7 km/h 84 % 0.00 in /  0 mm
10:02 33.4 °F /  0.8 °C 28.8 °F /  -1.8 °C 30.01 in /  1016.1 hPa North 1.0 mph /  1.6 km/h 9.0 mph /  14.5 km/h 83 % 0.00 in /  0 mm
10:11 33.4 °F /  0.8 °C 28.2 °F /  -2.1 °C 30.02 in /  1016.5 hPa NE 6.0 mph /  9.7 km/h 10.0 mph /  16.1 km/h 81 % 0.00 in /  0 mm
10:36 34.3 °F /  1.3 °C 27.2 °F /  -2.7 °C 30.03 in /  1016.8 hPa WSW 12.0 mph /  19.3 km/h 20.0 mph /  32.2 km/h 75 % 0.00 in /  0 mm
10:41 34.3 °F /  1.3 °C 27.2 °F /  -2.7 °C 30.03 in /  1016.8 hPa North 4.0 mph /  6.4 km/h 20.0 mph /  32.2 km/h 75 % 0.00 in /  0 mm
10:49 34.4 °F /  1.3 °C 26.7 °F /  -2.9 °C 30.03 in /  1016.8 hPa NW 3.0 mph /  4.8 km/h 13.0 mph /  20.9 km/h 73 % 0.00 in /  0 mm
11:11 34.4 °F /  1.3 °C 27.0 °F /  -2.8 °C 30.04 in /  1017.2 hPa Calm   12.0 mph /  19.3 km/h 74 % 0.00 in /  0 mm
11:33 34.1 °F /  1.2 °C 26.4 °F /  -3.1 °C 30.05 in /  1017.5 hPa ENE 2.0 mph /  3.2 km/h 15.0 mph /  24.1 km/h 73 % 0.00 in /  0 mm
11:42 34.0 °F /  1.1 °C 26.0 °F /  -3.3 °C 30.05 in /  1017.5 hPa West 5.0 mph /  8 km/h 15.0 mph /  24.1 km/h 72 % 0.00 in /  0 mm
11:48 34.1 °F /  1.2 °C 26.0 °F /  -3.3 °C 30.06 in /  1017.8 hPa NW 8.0 mph /  12.9 km/h 15.0 mph /  24.1 km/h 72 % 0.00 in /  0 mm
11:53 34.0 °F /  1.1 °C 25.6 °F /  -3.6 °C 30.06 in /  1017.8 hPa WNW 2.0 mph /  3.2 km/h 15.0 mph /  24.1 km/h 71 % 0.00 in /  0 mm
12:06 34.3 °F /  1.3 °C 25.5 °F /  -3.6 °C 30.06 in /  1017.8 hPa NW 9.0 mph /  14.5 km/h 12.0 mph /  19.3 km/h 70 % 0.00 in /  0 mm
12:19 34.3 °F /  1.3 °C 25.5 °F /  -3.6 °C 30.06 in /  1017.8 hPa WNW 6.0 mph /  9.7 km/h 15.0 mph /  24.1 km/h 70 % 0.00 in /  0 mm
12:25 34.3 °F /  1.3 °C 24.8 °F /  -4 °C 30.06 in /  1017.8 hPa NNE 5.0 mph /  8 km/h 15.0 mph /  24.1 km/h 68 % 0.00 in /  0 mm
12:44 34.4 °F /  1.3 °C 24.6 °F /  -4.1 °C 30.07 in /  1018.2 hPa WNW 4.0 mph /  6.4 km/h 14.0 mph /  22.5 km/h 67 % 0.00 in /  0 mm
12:49 34.5 °F /  1.4 °C 24.7 °F /  -4.1 °C 30.08 in /  1018.5 hPa NW 2.0 mph /  3.2 km/h 17.0 mph /  27.4 km/h 67 % 0.00 in /  0 mm
13:41 34.3 °F /  1.3 °C 23.5 °F /  -4.7 °C 30.11 in /  1019.5 hPa West 2.0 mph /  3.2 km/h 17.0 mph /  27.4 km/h 64 % 0.01 in /  0.25 mm
13:47 34.4 °F /  1.3 °C 23.9 °F /  -4.5 °C 30.11 in /  1019.5 hPa WSW 3.0 mph /  4.8 km/h 14.0 mph /  22.5 km/h 65 % 0.01 in /  0.25 mm
14:25 33.9 °F /  1.1 °C 22.7 °F /  -5.2 °C 30.15 in /  1020.9 hPa NW 4.0 mph /  6.4 km/h 14.0 mph /  22.5 km/h 63 % 0.00 in /  0 mm
14:31 33.8 °F /  1 °C 22.2 °F /  -5.4 °C 30.16 in /  1021.2 hPa SSW 2.0 mph /  3.2 km/h 13.0 mph /  20.9 km/h 62 % 0.00 in /  0 mm
14:43 33.8 °F /  1 °C 22.2 °F /  -5.4 °C 30.16 in /  1021.2 hPa WNW 7.0 mph /  11.3 km/h 13.0 mph /  20.9 km/h 62 % 0.00 in /  0 mm
14:52 33.9 °F /  1.1 °C 22.3 °F /  -5.4 °C 30.17 in /  1021.6 hPa WNW 5.0 mph /  8 km/h 12.0 mph /  19.3 km/h 62 % 0.00 in /  0 mm
15:06 34.1 °F /  1.2 °C 22.1 °F /  -5.5 °C 30.18 in /  1021.9 hPa North 10.0 mph /  16.1 km/h 11.0 mph /  17.7 km/h 61 % 0.00 in /  0 mm
15:19 33.8 °F /  1 °C 22.2 °F /  -5.4 °C 30.19 in /  1022.2 hPa North 4.0 mph /  6.4 km/h 13.0 mph /  20.9 km/h 62 % 0.00 in /  0 mm
16:08 32.9 °F /  0.5 °C 21.0 °F /  -6.1 °C 30.23 in /  1023.6 hPa NW 1.0 mph /  1.6 km/h 12.0 mph /  19.3 km/h 61 % 0.00 in /  0 mm
16:15 32.5 °F /  0.3 °C 20.2 °F /  -6.6 °C 30.24 in /  1023.9 hPa WSW 2.0 mph /  3.2 km/h 13.0 mph /  20.9 km/h 60 % 0.00 in /  0 mm
16:28 32.2 °F /  0.1 °C 19.9 °F /  -6.7 °C 30.25 in /  1024.3 hPa WNW 1.0 mph /  1.6 km/h 18.0 mph /  29 km/h 60 % 0.00 in /  0 mm
16:30 32.2 °F /  0.1 °C 19.9 °F /  -6.7 °C 30.25 in /  1024.3 hPa SW 4.0 mph /  6.4 km/h 18.0 mph /  29 km/h 60 % 0.00 in /  0 mm
16:46 31.6 °F /  -0.2 °C 18.9 °F /  -7.3 °C 30.26 in /  1024.6 hPa NW 4.0 mph /  6.4 km/h 16.0 mph /  25.7 km/h 59 % 0.00 in /  0 mm
17:03 31.0 °F /  -0.6 °C 17.6 °F /  -8 °C 30.27 in /  1024.9 hPa WSW 5.0 mph /  8 km/h 11.0 mph /  17.7 km/h 57 % 0.00 in /  0 mm
17:09 30.8 °F /  -0.7 °C 17.4 °F /  -8.1 °C 30.27 in /  1024.9 hPa SW 3.0 mph /  4.8 km/h 11.0 mph /  17.7 km/h 57 % 0.00 in /  0 mm
17:20 30.6 °F /  -0.8 °C 16.8 °F /  -8.4 °C 30.28 in /  1025.3 hPa North 3.0 mph /  4.8 km/h 12.0 mph /  19.3 km/h 56 % 0.00 in /  0 mm
17:26 30.5 °F /  -0.8 °C 16.7 °F /  -8.5 °C 30.28 in /  1025.3 hPa NW 1.0 mph /  1.6 km/h 12.0 mph /  19.3 km/h 56 % 0.00 in /  0 mm
17:42 30.3 °F /  -0.9 °C 16.5 °F /  -8.6 °C 30.30 in /  1026 hPa WNW 2.0 mph /  3.2 km/h 12.0 mph /  19.3 km/h 56 % 0.00 in /  0 mm
18:17 29.3 °F /  -1.5 °C 16.7 °F /  -8.5 °C 30.32 in /  1026.6 hPa Calm   12.0 mph /  19.3 km/h 59 % 0.00 in /  0 mm
18:27 28.9 °F /  -1.7 °C 16.4 °F /  -8.7 °C 30.32 in /  1026.6 hPa Calm   11.0 mph /  17.7 km/h 59 % 0.00 in /  0 mm
18:36 28.7 °F /  -1.8 °C 16.6 °F /  -8.6 °C 30.33 in /  1027 hPa NNE 7.0 mph /  11.3 km/h 14.0 mph /  22.5 km/h 60 % 0.00 in /  0 mm
18:48 28.5 °F /  -1.9 °C 16.4 °F /  -8.7 °C 30.34 in /  1027.3 hPa WNW 5.0 mph /  8 km/h 14.0 mph /  22.5 km/h 60 % 0.00 in /  0 mm
18:54 28.4 °F /  -2 °C 16.3 °F /  -8.7 °C 30.34 in /  1027.3 hPa NW 1.0 mph /  1.6 km/h 10.0 mph /  16.1 km/h 60 % 0.00 in /  0 mm
19:21 27.8 °F /  -2.3 °C 15.8 °F /  -9 °C 30.35 in /  1027.7 hPa WNW 2.0 mph /  3.2 km/h 12.0 mph /  19.3 km/h 60 % 0.00 in /  0 mm
19:27 27.6 °F /  -2.4 °C 15.6 °F /  -9.1 °C 30.36 in /  1028 hPa NW 4.0 mph /  6.4 km/h 12.0 mph /  19.3 km/h 60 % 0.00 in /  0 mm
19:42 27.4 °F /  -2.6 °C 15.4 °F /  -9.2 °C 30.36 in /  1028 hPa NW 5.0 mph /  8 km/h 11.0 mph /  17.7 km/h 60 % 0.00 in /  0 mm
19:47 27.2 °F /  -2.7 °C 15.2 °F /  -9.3 °C 30.36 in /  1028 hPa West 2.0 mph /  3.2 km/h 9.0 mph /  14.5 km/h 60 % 0.00 in /  0 mm
19:52 27.1 °F /  -2.7 °C 15.5 °F /  -9.2 °C 30.37 in /  1028.3 hPa North 4.0 mph /  6.4 km/h 9.0 mph /  14.5 km/h 61 % 0.00 in /  0 mm
20:19 26.3 °F /  -3.2 °C 15.1 °F /  -9.4 °C 30.40 in /  1029.3 hPa Calm   10.0 mph /  16.1 km/h 62 % 0.00 in /  0 mm
20:28 26.0 °F /  -3.3 °C 14.8 °F /  -9.6 °C 30.41 in /  1029.7 hPa NW 3.0 mph /  4.8 km/h 8.0 mph /  12.9 km/h 62 % 0.00 in /  0 mm
20:45 25.5 °F /  -3.6 °C 14.3 °F /  -9.8 °C 30.42 in /  1030 hPa North 3.0 mph /  4.8 km/h 9.0 mph /  14.5 km/h 62 % 0.00 in /  0 mm
21:09 25.1 °F /  -3.8 °C 14.0 °F /  -10 °C 30.44 in /  1030.7 hPa NW 2.0 mph /  3.2 km/h 9.0 mph /  14.5 km/h 62 % 0.00 in /  0 mm
21:16 24.8 °F /  -4 °C 13.3 °F /  -10.4 °C 30.45 in /  1031 hPa NW 3.0 mph /  4.8 km/h 12.0 mph /  19.3 km/h 61 % 0.00 in /  0 mm
21:23 24.7 °F /  -4.1 °C 12.8 °F /  -10.7 °C 30.46 in /  1031.4 hPa West 5.0 mph /  8 km/h 12.0 mph /  19.3 km/h 60 % 0.00 in /  0 mm
21:30 24.5 °F /  -4.2 °C 12.6 °F /  -10.8 °C 30.46 in /  1031.4 hPa NW 6.0 mph /  9.7 km/h 12.0 mph /  19.3 km/h 60 % 0.00 in /  0 mm
21:36 24.4 °F /  -4.2 °C 11.8 °F /  -11.2 °C 30.46 in /  1031.4 hPa North 5.0 mph /  8 km/h 14.0 mph /  22.5 km/h 58 % 0.00 in /  0 mm
21:47 24.2 °F /  -4.3 °C 11.6 °F /  -11.3 °C 30.47 in /  1031.7 hPa North 7.0 mph /  11.3 km/h 14.0 mph /  22.5 km/h 58 % 0.00 in /  0 mm
22:06 23.6 °F /  -4.7 °C 11.0 °F /  -11.7 °C 30.49 in /  1032.4 hPa Calm   13.0 mph /  20.9 km/h 58 % 0.00 in /  0 mm
22:13 23.4 °F /  -4.8 °C 10.8 °F /  -11.8 °C 30.50 in /  1032.7 hPa Calm   11.0 mph /  17.7 km/h 58 % 0.00 in /  0 mm
22:20 23.3 °F /  -4.8 °C 11.1 °F /  -11.6 °C 30.50 in /  1032.7 hPa North 3.0 mph /  4.8 km/h 11.0 mph /  17.7 km/h 59 % 0.00 in /  0 mm
22:27 23.2 °F /  -4.9 °C 11.4 °F /  -11.4 °C 30.50 in /  1032.7 hPa WNW 2.0 mph /  3.2 km/h 11.0 mph /  17.7 km/h 60 % 0.00 in /  0 mm
22:33 23.0 °F /  -5 °C 11.2 °F /  -11.6 °C 30.50 in /  1032.7 hPa North 2.0 mph /  3.2 km/h 9.0 mph /  14.5 km/h 60 % 0.00 in /  0 mm
22:42 22.9 °F /  -5.1 °C 10.7 °F /  -11.8 °C 30.51 in /  1033.1 hPa North 4.0 mph /  6.4 km/h 9.0 mph /  14.5 km/h 59 % 0.00 in /  0 mm
23:08 22.4 °F /  -5.3 °C 10.3 °F /  -12.1 °C 30.52 in /  1033.4 hPa NW 4.0 mph /  6.4 km/h 10.0 mph /  16.1 km/h 59 % 0.00 in /  0 mm
23:14 22.3 °F /  -5.4 °C 10.2 °F /  -12.1 °C 30.53 in /  1033.7 hPa ENE 3.0 mph /  4.8 km/h 10.0 mph /  16.1 km/h 59 % 0.00 in /  0 mm
23:41 21.8 °F /  -5.7 °C 9.7 °F /  -12.4 °C 30.53 in /  1033.7 hPa North 5.0 mph /  8 km/h 12.0 mph /  19.3 km/h 59 % 0.00 in /  0 mm
23:47 21.7 °F /  -5.7 °C 9.6 °F /  -12.4 °C 30.53 in /  1033.7 hPa NW 3.0 mph /  4.8 km/h 11.0 mph /  17.7 km/h 59 % 0.00 in /  0 mm
MarylandWx.com
Compliments of Weather Underground - 5.5 mb